This is the latest recevied weather packets stored in our database for station/object AD8IZ-13. If no packets are shown the sender has not sent any weather packets the latest 1 day(s).
| Time | Temp. | Humidity | Pressure | Rain* | Wind** | Luminosity | Snow |
|---|---|---|---|---|---|---|---|
| 1777986321 | 16.11° C | 83% | 1008.3 hPa | 0.25 mm | 0.45 m/s, 168° | 152 W/m² | - |
| 1777985718 | 16.11° C | 83% | 1008.3 hPa | 0.25 mm | 0 m/s | 82 W/m² | - |
| 1777985119 | 15.56° C | 82% | 1008.3 hPa | 0.25 mm | 0.45 m/s, 188° | 62 W/m² | - |
| 1777984520 | 15.56° C | 83% | 1008.1 hPa | 0.25 mm | 0.45 m/s, 192° | 72 W/m² | - |
| 1777983920 | 15.56° C | 83% | 1007.6 hPa | 0.25 mm | 0 m/s | 46 W/m² | - |
| 1777983319 | 15.56° C | 82% | 1007.6 hPa | 0.25 mm | 0.45 m/s, 184° | 29 W/m² | - |
| 1777982719 | 16.11° C | 82% | 1007.5 hPa | 0 mm | 0 m/s | 25 W/m² | - |
| 1777982119 | 16.11° C | 81% | 1007.5 hPa | 0 mm | 0.45 m/s, 184° | 19 W/m² | - |
| 1777981519 | 16.11° C | 80% | 1007.5 hPa | 0 mm | 0.45 m/s, 201° | 34 W/m² | - |
| 1777980920 | 16.11° C | 79% | 1007.5 hPa | 0 mm | 0 m/s | 25 W/m² | - |
| 1777980317 | 16.11° C | 78% | 1007.7 hPa | 0 mm | 0.45 m/s, 216° | 24 W/m² | - |
| 1777979720 | 16.11° C | 78% | 1007.6 hPa | 0 mm | 0 m/s | 14 W/m² | - |
| 1777977917 | 16.67° C | 76% | 1007.4 hPa | 0 mm | 0 m/s | 3 W/m² | - |
| 1777977318 | 16.67° C | 75% | 1007.4 hPa | 0 mm | 0.45 m/s, 190° | 1 W/m² | - |
| 1777976717 | 16.67° C | 74% | 1007.5 hPa | 0 mm | 0 m/s | 0 W/m² | - |
| 1777976121 | 16.67° C | 74% | 1007.6 hPa | 0 mm | 0 m/s | 0 W/m² | - |
| 1777975518 | 17.22° C | 73% | 1007.4 hPa | 0 mm | 0.45 m/s, 182° | 0 W/m² | - |
| 1777974920 | 17.22° C | 72% | 1007.4 hPa | 0 mm | 0.45 m/s, 180° | 0 W/m² | - |
| 1777974319 | 17.22° C | 71% | 1007.4 hPa | 0 mm | 0.45 m/s, 184° | 0 W/m² | - |
| 1777973719 | 17.22° C | 71% | 1007.2 hPa | 0 mm | 0.45 m/s, 177° | 0 W/m² | - |
| 1777973120 | 17.22° C | 70% | 1007.1 hPa | 0 mm | 0.45 m/s, 187° | 0 W/m² | - |
| 1777972519 | 17.78° C | 70% | 1007.2 hPa | 0 mm | 0.45 m/s, 203° | 0 W/m² | - |
| 1777971920 | 17.78° C | 69% | 1007.1 hPa | 0 mm | 0.45 m/s, 185° | 0 W/m² | - |
| 1777971319 | 17.78° C | 68% | 1007 hPa | 0 mm | 0.89 m/s, 177° | 0 W/m² | - |
| 1777970717 | 17.78° C | 68% | 1006.7 hPa | 0 mm | 0.89 m/s, 177° | 0 W/m² | - |
* Rain latest hour (hover to see other rain measurements)
** Current wind speed in m/s (hover to see current wind gust speed)